Terminal Aerodrome Forecast
Issued by NWS

Home | Current Version | Previous Version | Text Only | Print | Product List | Glossary On
Versions: 1 2 3 4 5 6 7 8 9 10 11 12 13 14 15 16 17 18 19 20 21 22
000
FTUS43 KDVN 251734
TAFCID
TAF
KCID 251734Z 2518/2618 31005KT P6SM SCT100 BKN250
     FM251900 32005KT P6SM VCSH BKN100 BKN250
     FM260000 33004KT P6SM SCT100 BKN250
     FM260900 02003KT 6SM BR BKN150
     FM261400 09006KT P6SM SCT070 BKN150=

USA.gov is the U.S. government's official web portal to all federal, state and local government web resources and services.